Time;durP1;ratioP1;P1;durP2;ratioP2;P2;SDS_P1;SDS_P2;PMS_P1;PMS_P2;Temp;Humidity;BMP_temperature;BMP_pressure;BME280_temperature;BME280_humidity;BME280_pressure;Samples;Min_cycle;Max_cycle;Signal;HPM_P1;HPM_P2
2022/06/22 00:02:05;;;;;;;1.02;0.75;;;;;;;16.60;41.25;100666.50;5113926;28;20055;-52
2022/06/22 00:04:53;;;;;;;1.27;0.73;;;;;;;16.57;41.68;100677.84;5113723;28;20028;-47
2022/06/22 00:07:41;;;;;;;2.50;0.80;;;;;;;16.61;42.75;100698.81;5114009;28;20445;-47
2022/06/22 00:10:22;;;;;;;1.70;1.02;;;;;;;16.43;43.12;100688.00;5098349;28;20116;-50
2022/06/22 00:12:51;;;;;;;1.48;0.80;;;;;;;16.42;42.31;100678.22;5113776;28;20027;-47
2022/06/22 00:15:26;;;;;;;4.00;1.30;;;;;;;16.46;45.14;100701.09;5114563;28;20027;-48
2022/06/22 00:17:52;;;;;;;2.67;1.30;;;;;;;16.26;44.50;100691.31;5114865;28;20033;-48
2022/06/22 00:20:24;;;;;;;3.58;1.50;;;;;;;16.41;46.31;100703.66;5114366;28;20474;-47
2022/06/22 00:22:57;;;;;;;2.78;1.90;;;;;;;16.22;47.03;100695.53;5098394;28;20062;-47
2022/06/22 00:25:38;;;;;;;2.90;1.60;;;;;;;16.09;47.37;100684.03;5117417;28;20028;-47
2022/06/22 00:28:26;;;;;;;2.65;1.25;;;;;;;16.22;49.22;100695.53;5118024;28;20038;-47
2022/06/22 00:31:01;;;;;;;3.47;1.73;;;;;;;16.27;48.70;100694.88;5103184;28;20027;-48
2022/06/22 00:33:27;;;;;;;2.30;1.60;;;;;;;16.13;47.32;100677.91;5118306;28;20028;-49
2022/06/22 00:36:12;;;;;;;1.75;1.30;;;;;;;16.22;46.83;100686.56;5100326;28;20038;-49
2022/06/22 00:38:38;;;;;;;;;;;;;;;16.02;50.91;100693.03;5118619;28;20390;-47
2022/06/22 00:41:17;;;;;;;3.00;1.67;;;;;;;16.05;49.28;100689.06;5116765;28;19952;-49
2022/06/22 00:43:44;;;;;;;1.20;1.10;;;;;;;15.94;47.63;100682.50;5116758;28;20031;-48
2022/06/22 00:46:15;;;;;;;2.22;1.45;;;;;;;15.86;49.43;100680.06;5116457;28;20031;-48
2022/06/22 00:48:41;;;;;;;4.35;1.38;;;;;;;15.77;48.55;100673.28;5099714;28;20026;-47
2022/06/22 00:51:14;;;;;;;3.90;1.50;;;;;;;15.76;48.45;100658.91;5118133;28;20049;-47
2022/06/22 00:53:44;;;;;;;1.50;1.13;;;;;;;15.77;48.95;100667.88;5116797;28;20122;-47
2022/06/22 00:56:50;;;;;;;3.25;1.30;;;;;;;15.71;50.28;100672.25;5117047;28;20062;-47
2022/06/22 00:59:22;;;;;;;;;;;;;;;15.65;50.03;100670.44;5117297;28;20429;-47
2022/06/22 01:01:58;;;;;;;1.88;1.20;;;;;;;15.58;49.20;100673.22;5117893;28;19998;-48
2022/06/22 01:04:46;;;;;;;2.03;1.30;;;;;;;15.62;48.47;100668.16;5116628;28;20427;-48
2022/06/22 01:07:25;;;;;;;1.80;1.17;;;;;;;15.63;50.04;100669.84;5102292;28;20376;-49
2022/06/22 01:10:05;;;;;;;2.22;1.55;;;;;;;15.47;50.47;100641.44;5116547;28;20040;-48
2022/06/22 01:12:54;;;;;;;3.15;1.58;;;;;;;15.52;50.86;100659.72;5117082;28;20032;-50
2022/06/22 01:15:45;;;;;;;3.30;1.88;;;;;;;15.61;51.73;100666.53;5116477;28;20035;-49
2022/06/22 01:18:17;;;;;;;3.53;2.13;;;;;;;15.54;50.93;100671.97;5117925;28;20028;-50
2022/06/22 01:21:22;;;;;;;2.60;1.77;;;;;;;15.49;53.38;100675.38;5117610;28;20077;-49
2022/06/22 01:24:27;;;;;;;3.35;1.92;;;;;;;15.39;54.15;100664.19;5116873;28;20080;-48
2022/06/22 01:27:30;;;;;;;7.35;2.38;;;;;;;15.44;54.78;100658.13;5090659;28;20081;-49
2022/06/22 01:30:03;;;;;;;4.22;2.33;;;;;;;15.38;53.21;100669.81;5104345;28;20115;-48
2022/06/22 01:32:33;;;;;;;8.55;3.00;;;;;;;15.32;54.50;100668.81;5116454;28;20111;-48
2022/06/22 01:35:03;;;;;;;4.13;2.30;;;;;;;15.35;53.41;100668.41;5114767;28;20487;-49
2022/06/22 01:37:32;;;;;;;6.55;3.33;;;;;;;15.29;55.68;100663.88;5115649;28;20039;-48
2022/06/22 01:40:18;;;;;;;5.82;3.47;;;;;;;15.15;57.77;100671.25;5116984;28;20066;-48
2022/06/22 01:42:53;;;;;;;3.45;2.72;;;;;;;15.10;57.27;100665.69;5117521;28;20376;-48
2022/06/22 01:45:33;;;;;;;6.15;2.33;;;;;;;15.16;56.80;100670.22;5116144;28;20047;-49
2022/06/22 01:48:08;;;;;;;3.92;2.70;;;;;;;15.09;56.47;100658.59;5117300;28;20102;-48
2022/06/22 01:50:48;;;;;;;4.15;2.33;;;;;;;14.97;56.92;100641.41;5098899;28;20023;-48
2022/06/22 01:53:37;;;;;;;2.80;2.45;;;;;;;15.05;57.26;100662.78;5116932;28;20028;-48
2022/06/22 01:56:17;;;;;;;3.92;2.17;;;;;;;15.02;56.28;100657.81;5117135;28;20042;-47
2022/06/22 01:59:23;;;;;;;2.95;2.30;;;;;;;15.02;58.00;100658.63;5107628;28;20031;-48
2022/06/22 02:02:13;;;;;;;5.63;2.38;;;;;;;14.93;55.81;100642.91;5116167;28;20027;-48
2022/06/22 02:04:52;;;;;;;2.97;1.83;;;;;;;14.91;55.95;100653.91;5116978;28;20127;-48
2022/06/22 02:07:49;;;;;;;4.35;2.40;;;;;;;14.88;57.14;100647.09;5116103;28;20092;-47
2022/06/22 02:10:32;;;;;;;3.38;2.33;;;;;;;14.88;57.56;100644.38;5115302;28;20075;-45
2022/06/22 02:13:24;;;;;;;3.15;2.13;;;;;;;14.80;57.65;100643.81;5116793;28;20103;-46
2022/06/22 02:16:03;;;;;;;4.05;2.35;;;;;;;14.66;57.25;100624.16;5102550;28;20040;-48
2022/06/22 02:18:43;;;;;;;6.30;2.13;;;;;;;14.63;55.90;100619.97;5116609;28;20046;-47
2022/06/22 02:21:19;;;;;;;2.53;2.00;;;;;;;14.69;56.77;100618.28;5116456;28;20039;-48
2022/06/22 02:23:50;;;;;;;3.58;1.80;;;;;;;14.68;56.10;100622.88;5117060;28;20035;-46
2022/06/22 02:26:24;;;;;;;3.17;2.28;;;;;;;14.61;56.41;100623.94;5115399;28;20088;-47
2022/06/22 02:28:51;;;;;;;3.28;1.70;;;;;;;14.40;57.05;100615.09;5115308;28;20039;-49
2022/06/22 02:31:20;;;;;;;2.78;1.70;;;;;;;14.43;56.94;100621.94;5115444;28;20119;-46
2022/06/22 02:33:50;;;;;;;9.10;2.53;;;;;;;14.40;57.69;100633.19;5115519;28;20046;-47
2022/06/22 02:36:17;;;;;;;2.33;2.03;;;;;;;14.26;57.41;100610.78;5114733;28;20031;-48
2022/06/22 02:38:45;;;;;;;4.75;2.17;;;;;;;14.36;57.02;100621.97;5115027;28;20371;-46
2022/06/22 02:46:45;;;;;;;3.38;2.03;;;;;;;14.31;56.57;100605.56;5100558;28;20023;-46
2022/06/22 02:49:21;;;;;;;5.55;2.30;;;;;;;14.38;57.24;100619.06;5115596;28;20034;-51
2022/06/22 02:51:49;;;;;;;2.58;1.90;;;;;;;14.33;56.82;100623.22;5115710;28;20038;-49
2022/06/22 02:54:38;;;;;;;4.70;1.95;;;;;;;14.39;57.71;100648.53;5115329;28;20032;-48
2022/06/22 02:57:22;;;;;;;4.28;2.00;;;;;;;14.08;58.90;100612.31;5114645;28;20031;-47
2022/06/22 02:59:49;;;;;;;2.45;2.25;;;;;;;14.11;58.83;100643.47;5115273;28;20036;-50
2022/06/22 03:02:17;;;;;;;5.57;2.20;;;;;;;13.98;58.44;100641.63;5115610;28;20031;-48
2022/06/22 03:04:46;;;;;;;3.83;2.30;;;;;;;13.92;59.31;100642.47;5114023;28;20062;-50
2022/06/22 03:07:13;;;;;;;2.55;2.35;;;;;;;13.92;58.59;100646.00;5114423;28;20540;-51
2022/06/22 03:09:51;;;;;;;5.80;2.67;;;;;;;13.83;58.87;100638.34;5114938;28;20511;-47
2022/06/22 03:12:17;;;;;;;4.22;2.10;;;;;;;13.87;58.73;100656.63;5113576;28;20031;-48
2022/06/22 03:14:54;;;;;;;3.78;2.00;;;;;;;13.85;59.10;100655.16;5080446;28;20028;-47
2022/06/22 03:17:27;;;;;;;3.55;2.30;;;;;;;13.81;58.94;100656.63;5115025;28;20118;-48
2022/06/22 03:20:04;;;;;;;2.60;2.40;;;;;;;13.78;59.01;100657.03;5117041;28;20451;-51
2022/06/22 03:22:36;;;;;;;4.53;2.55;;;;;;;13.84;58.72;100656.22;5114953;28;20035;-47
2022/06/22 03:25:29;;;;;;;4.40;2.50;;;;;;;13.84;59.27;100661.63;5118057;28;20460;-48
2022/06/22 03:28:03;;;;;;;2.95;2.30;;;;;;;13.75;59.00;100655.59;5116938;28;20031;-47
2022/06/22 03:30:33;;;;;;;3.20;2.30;;;;;;;13.67;58.82;100666.59;5115392;28;20024;-47
2022/06/22 03:33:06;;;;;;;4.88;2.78;;;;;;;13.61;59.75;100683.63;5115148;28;20067;-47
2022/06/22 03:35:55;;;;;;;5.00;2.60;;;;;;;13.44;61.84;100675.13;5113747;28;20023;-46
2022/06/22 03:38:28;;;;;;;5.80;3.17;;;;;;;13.37;61.70;100677.81;5113671;28;20486;-47
2022/06/22 03:41:02;;;;;;;3.05;2.75;;;;;;;13.24;61.59;100664.28;5114803;27;20036;-47
2022/06/22 03:43:36;;;;;;;3.85;2.28;;;;;;;13.36;61.00;100689.66;5113600;28;20547;-47
2022/06/22 03:46:08;;;;;;;2.88;2.42;;;;;;;13.32;60.85;100675.75;5114641;28;20500;-47
2022/06/22 03:48:40;;;;;;;4.18;2.58;;;;;;;13.44;59.88;100702.09;5114473;28;20036;-48
2022/06/22 03:51:17;;;;;;;2.15;1.95;;;;;;;13.37;61.15;100696.69;5114823;28;20084;-46
2022/06/22 03:53:51;;;;;;;2.40;2.20;;;;;;;13.36;60.30;100693.16;5114678;27;20035;-47
2022/06/22 03:56:22;;;;;;;2.08;1.88;;;;;;;13.31;60.25;100678.63;5114948;28;20032;-48
2022/06/22 03:58:50;;;;;;;2.78;2.22;;;;;;;13.34;60.12;100687.16;5114870;28;20043;-47
2022/06/22 04:01:17;;;;;;;5.40;2.53;;;;;;;13.41;59.89;100703.34;5114060;28;20039;-46
2022/06/22 04:03:43;;;;;;;5.32;2.75;;;;;;;13.32;60.46;100683.00;5114543;28;20035;-48
2022/06/22 04:06:22;;;;;;;2.58;2.15;;;;;;;13.31;60.83;100697.53;5113749;28;20146;-49
2022/06/22 04:08:48;;;;;;;2.30;1.80;;;;;;;13.27;60.19;100682.75;5112920;28;20048;-47
2022/06/22 04:11:24;;;;;;;3.83;2.05;;;;;;;13.34;61.21;100695.25;5114833;28;20034;-47
2022/06/22 04:13:59;;;;;;;1.95;1.85;;;;;;;13.32;60.13;100686.53;5114515;28;20034;-48
2022/06/22 04:16:47;;;;;;;2.92;2.28;;;;;;;13.39;60.23;100696.50;5113070;28;20397;-48
2022/06/22 04:19:20;;;;;;;2.80;2.08;;;;;;;13.40;60.02;100696.28;5114730;28;20020;-47
2022/06/22 04:21:51;;;;;;;4.47;2.03;;;;;;;13.48;60.16;100698.78;5114906;28;20024;-47
2022/06/22 04:24:24;;;;;;;2.40;1.80;;;;;;;13.44;60.10;100691.31;5114078;28;20034;-48
2022/06/22 04:26:58;;;;;;;4.15;2.53;;;;;;;13.29;61.26;100686.91;5114127;28;20032;-46
2022/06/22 04:29:57;;;;;;;2.63;2.35;;;;;;;13.38;62.85;100690.28;5112926;28;20084;-48
2022/06/22 04:32:27;;;;;;;2.83;2.50;;;;;;;13.39;60.68;100691.09;5113320;28;20036;-47
2022/06/22 04:34:59;;;;;;;2.53;1.95;;;;;;;13.39;61.18;100693.78;5113893;28;20032;-49
2022/06/22 04:37:37;;;;;;;2.95;2.00;;;;;;;13.33;61.45;100681.97;5114317;28;20071;-46
2022/06/22 04:40:31;;;;;;;2.13;1.92;;;;;;;13.38;61.51;100692.16;5096514;28;20387;-48
2022/06/22 04:43:02;;;;;;;3.10;1.83;;;;;;;13.36;61.67;100686.94;5113898;28;20388;-46
2022/06/22 04:45:33;;;;;;;3.47;2.03;;;;;;;13.38;61.09;100695.66;5116101;28;20023;-46
2022/06/22 04:48:07;;;;;;;3.13;2.20;;;;;;;13.38;61.24;100694.84;5114700;28;20036;-48
2022/06/22 04:50:34;;;;;;;;;;;;;;;13.49;64.02;100694.22;5114723;28;20031;-47
2022/06/22 04:53:02;;;;;;;4.85;2.35;;;;;;;13.67;61.07;100691.72;5113337;28;19911;-46
2022/06/22 04:55:30;;;;;;;1.88;1.67;;;;;;;13.59;60.51;100681.13;5113689;28;20035;-47
2022/06/22 04:58:03;;;;;;;2.90;1.67;;;;;;;13.59;61.20;100696.50;5113722;28;20023;-46
2022/06/22 05:00:34;;;;;;;3.33;1.88;;;;;;;13.47;61.35;100669.31;5114307;28;20038;-47
2022/06/22 05:03:05;;;;;;;2.38;2.08;;;;;;;13.58;61.37;100698.38;5112915;28;20070;-46
2022/06/22 05:05:33;;;;;;;4.82;2.50;;;;;;;13.61;61.49;100702.50;5114342;28;20072;-47
2022/06/22 05:08:04;;;;;;;2.60;2.10;;;;;;;13.48;61.33;100674.50;5112434;28;20441;-50
2022/06/22 05:10:59;;;;;;;2.33;2.00;;;;;;;13.70;62.22;100698.56;5116709;28;20126;-46
2022/06/22 05:13:32;;;;;;;3.33;2.30;;;;;;;13.85;60.99;100692.94;5116722;28;20028;-47
2022/06/22 05:15:59;;;;;;;2.53;2.20;;;;;;;13.77;61.17;100685.91;5117998;28;20038;-48
2022/06/22 05:18:30;;;;;;;3.08;2.47;;;;;;;13.77;61.54;100691.31;5116806;28;20027;-46
2022/06/22 05:21:28;;;;;;;2.13;1.90;;;;;;;13.85;61.51;100692.94;5118232;28;20027;-46
2022/06/22 05:23:57;;;;;;;4.70;1.90;;;;;;;13.81;61.10;100683.63;5102935;28;20020;-46
2022/06/22 05:26:26;;;;;;;2.40;2.20;;;;;;;13.92;61.13;100697.28;5099703;28;20031;-48
2022/06/22 05:29:14;;;;;;;6.53;2.22;;;;;;;13.93;61.06;100696.28;5117557;28;20476;-47
2022/06/22 05:31:46;;;;;;;2.67;2.10;;;;;;;14.01;61.04;100706.00;5098958;28;20077;-47
2022/06/22 05:34:20;;;;;;;5.55;2.08;;;;;;;14.06;61.01;100706.22;5117348;28;20034;-46
2022/06/22 05:36:53;;;;;;;2.13;1.92;;;;;;;13.96;60.70;100686.91;5098842;28;20076;-46
2022/06/22 05:39:19;;;;;;;4.20;2.40;;;;;;;14.06;60.71;100702.66;5117379;27;20028;-48
2022/06/22 05:41:47;;;;;;;2.58;2.00;;;;;;;14.15;60.41;100714.91;5116593;28;20055;-47
2022/06/22 05:44:17;;;;;;;1.88;1.70;;;;;;;14.18;60.68;100710.97;5098871;28;20505;-47
2022/06/22 05:46:54;;;;;;;3.97;1.90;;;;;;;14.21;60.14;100713.22;5115790;28;20023;-48
2022/06/22 05:49:25;;;;;;;1.88;1.60;;;;;;;14.25;59.59;100706.38;5115531;28;20041;-48
2022/06/22 05:52:06;;;;;;;1.50;1.40;;;;;;;14.34;60.23;100707.81;5115487;28;20111;-47
2022/06/22 05:54:54;;;;;;;2.90;2.20;;;;;;;14.36;61.98;100711.13;5116640;28;20046;-48
2022/06/22 05:57:46;;;;;;;2.60;1.75;;;;;;;14.35;60.83;100703.25;5116118;28;20418;-48
2022/06/22 06:00:19;;;;;;;1.55;1.40;;;;;;;14.35;60.21;100703.25;5101758;28;20050;-48
2022/06/22 06:03:00;;;;;;;3.00;1.92;;;;;;;14.35;60.01;100689.72;5116656;28;20073;-48
2022/06/22 06:05:36;;;;;;;2.55;1.33;;;;;;;14.47;59.86;100710.47;5115044;28;20020;-48
2022/06/22 06:08:09;;;;;;;2.08;1.45;;;;;;;14.48;60.39;100714.81;5116682;28;20106;-52
2022/06/22 06:10:40;;;;;;;2.20;1.58;;;;;;;14.51;60.30;100718.97;5116770;28;20082;-47
2022/06/22 06:13:37;;;;;;;1.50;1.38;;;;;;;14.56;60.00;100723.72;5115175;28;20059;-46
2022/06/22 06:16:09;;;;;;;2.80;1.83;;;;;;;14.57;59.59;100720.00;5115534;28;20045;-47
2022/06/22 06:18:41;;;;;;;2.15;1.40;;;;;;;14.52;59.04;100705.25;5116338;27;20035;-47
2022/06/22 06:21:15;;;;;;;2.50;1.67;;;;;;;14.68;58.94;100719.38;5098991;28;20430;-47
2022/06/22 06:23:51;;;;;;;4.82;1.65;;;;;;;14.68;59.56;100713.97;5116897;28;20122;-47
2022/06/22 06:29:30;;;;;;;1.75;1.50;;;;;;;14.71;58.81;100710.84;5115331;28;20039;-47
2022/06/22 06:32:20;;;;;;;3.22;1.60;;;;;;;14.83;58.20;100724.50;5116236;28;20038;-46
2022/06/22 06:34:51;;;;;;;2.25;1.10;;;;;;;14.86;57.58;100715.97;5115217;28;20054;-47
2022/06/22 06:37:38;;;;;;;2.40;1.27;;;;;;;14.83;56.91;100703.69;5116252;28;20031;-46
2022/06/22 06:40:05;;;;;;;2.60;1.20;;;;;;;14.83;56.09;100692.88;5116711;28;20035;-48
2022/06/22 06:42:39;;;;;;;1.60;0.90;;;;;;;15.00;55.59;100705.88;5115395;28;20067;-48
2022/06/22 06:45:14;;;;;;;1.73;1.17;;;;;;;15.06;54.57;100718.53;5117681;28;20475;-46
2022/06/22 06:47:46;;;;;;;3.85;0.90;;;;;;;15.14;53.60;100723.72;5115409;28;20096;-46
2022/06/22 06:50:21;;;;;;;2.05;1.00;;;;;;;15.22;53.66;100725.31;5115720;28;20035;-46
2022/06/22 06:52:57;;;;;;;1.25;0.80;;;;;;;15.23;53.81;100724.25;5116789;28;20027;-47
2022/06/22 06:55:47;;;;;;;4.45;0.80;;;;;;;15.34;52.33;100723.59;5116265;28;20028;-48
2022/06/22 06:58:19;;;;;;;1.15;0.82;;;;;;;15.39;49.68;100717.50;5115076;28;20142;-48
2022/06/22 07:00:47;;;;;;;1.85;0.80;;;;;;;15.38;50.84;100713.97;5116570;28;20081;-46
2022/06/22 07:03:21;;;;;;;3.90;0.82;;;;;;;15.53;50.59;100726.38;5116059;27;20061;-48
2022/06/22 07:05:49;;;;;;;1.73;0.85;;;;;;;15.58;50.77;100729.22;5115517;27;20028;-48
2022/06/22 07:08:21;;;;;;;1.00;0.70;;;;;;;15.65;49.89;100730.81;5115313;28;20066;-48
2022/06/22 07:10:58;;;;;;;1.67;1.08;;;;;;;15.71;49.73;100731.81;5097744;28;20417;-47
2022/06/22 07:13:31;;;;;;;2.55;0.88;;;;;;;15.88;49.27;100721.31;5098362;28;20031;-46
2022/06/22 07:16:02;;;;;;;2.00;0.73;;;;;;;16.00;48.69;100722.22;5115259;28;20028;-46
2022/06/22 07:18:34;;;;;;;1.20;0.90;;;;;;;16.02;48.42;100708.44;5115940;28;20038;-46
2022/06/22 07:21:23;;;;;;;2.42;0.93;;;;;;;16.12;48.10;100719.63;5114863;28;20036;-46
2022/06/22 07:23:57;;;;;;;1.48;0.70;;;;;;;16.11;46.52;100703.59;5100108;28;20028;-46
2022/06/22 07:26:57;;;;;;;1.42;0.60;;;;;;;16.31;46.10;100722.34;5115109;28;20038;-46
2022/06/22 07:29:39;;;;;;;1.23;0.50;;;;;;;16.32;46.36;100713.97;5114073;28;20031;-46
2022/06/22 07:32:33;;;;;;;1.30;0.52;;;;;;;16.47;45.38;100715.47;5113192;28;20043;-50
2022/06/22 07:35:25;;;;;;;0.73;0.63;;;;;;;16.63;45.79;100709.44;5113719;28;20027;-48
2022/06/22 07:38:03;;;;;;;1.83;1.00;;;;;;;16.68;46.17;100704.19;5114984;28;20031;-50
2022/06/22 07:40:30;;;;;;;2.25;1.00;;;;;;;16.77;44.87;100701.97;5114955;28;20028;-50
2022/06/22 07:42:58;;;;;;;0.85;0.65;;;;;;;16.91;45.62;100708.91;5115075;28;20038;-46
2022/06/22 07:45:27;;;;;;;1.02;0.60;;;;;;;16.95;45.27;100712.81;5113970;28;20399;-47
2022/06/22 07:48:12;;;;;;;0.40;0.40;;;;;;;17.00;44.26;100704.00;5114860;28;20031;-49
2022/06/22 07:50:57;;;;;;;1.05;0.50;;;;;;;17.13;40.30;100706.50;5115306;28;20409;-48
2022/06/22 07:53:33;;;;;;;0.75;0.47;;;;;;;17.28;41.57;100707.97;5113250;28;20521;-48
2022/06/22 07:56:09;;;;;;;0.40;0.40;;;;;;;17.44;41.38;100710.03;5113601;28;20115;-49
2022/06/22 07:58:45;;;;;;;1.77;0.40;;;;;;;17.58;42.53;100710.63;5114389;28;20391;-51
2022/06/22 08:01:17;;;;;;;0.55;0.40;;;;;;;17.63;42.43;100709.94;5114323;28;20038;-46
2022/06/22 08:03:51;;;;;;;1.25;0.60;;;;;;;18.02;36.36;100703.00;5114697;28;20024;-46
2022/06/22 08:06:29;;;;;;;0.82;0.43;;;;;;;18.25;36.34;100713.00;5113373;28;20055;-46
2022/06/22 08:09:01;;;;;;;0.95;0.52;;;;;;;18.55;37.55;100699.25;5114023;28;20495;-49
2022/06/22 08:11:32;;;;;;;2.33;0.70;;;;;;;18.72;37.18;100706.63;5114991;28;20023;-48
2022/06/22 08:14:07;;;;;;;2.05;0.65;;;;;;;18.92;38.01;100698.88;5113270;28;20114;-52
2022/06/22 08:16:38;;;;;;;1.48;0.90;;;;;;;19.15;37.81;100692.53;5113209;28;20028;-51
2022/06/22 08:19:04;;;;;;;0.90;0.65;;;;;;;19.72;37.65;100698.88;5113276;28;20472;-49
2022/06/22 08:21:33;;;;;;;1.38;0.70;;;;;;;20.68;35.59;100686.88;5114099;28;20036;-46
2022/06/22 08:23:59;;;;;;;2.45;0.82;;;;;;;21.57;34.57;100696.50;5115089;28;20023;-48
2022/06/22 08:26:29;;;;;;;1.95;0.60;;;;;;;22.23;32.94;100687.91;5114491;28;20556;-52
2022/06/22 08:28:56;;;;;;;1.15;0.70;;;;;;;22.93;34.04;100684.06;5114461;28;20030;-48
2022/06/22 08:31:28;;;;;;;1.42;0.82;;;;;;;23.51;30.89;100686.59;5114182;28;20034;-50
2022/06/22 08:33:59;;;;;;;2.25;1.00;;;;;;;24.06;32.47;100682.16;5113134;28;20042;-49
2022/06/22 08:36:40;;;;;;;1.40;0.60;;;;;;;24.60;30.17;100671.56;5114308;28;20328;-49
2022/06/22 08:39:16;;;;;;;2.20;0.50;;;;;;;25.13;30.73;100663.53;5113310;28;20419;-49
2022/06/22 08:41:54;;;;;;;2.70;0.68;;;;;;;25.54;28.95;100665.13;5115245;28;20042;-48
2022/06/22 08:44:50;;;;;;;0.77;0.73;;;;;;;25.86;28.32;100667.31;5117584;28;20043;-51
2022/06/22 08:47:32;;;;;;;2.38;0.90;;;;;;;26.17;29.15;100659.56;5103581;28;20045;-50
2022/06/22 08:50:28;;;;;;;0.90;0.63;;;;;;;26.91;28.50;100661.06;5116822;28;20023;-48
2022/06/22 08:53:25;;;;;;;2.42;0.50;;;;;;;27.12;26.15;100647.81;5116898;28;20028;-51
2022/06/22 08:56:26;;;;;;;0.98;0.88;;;;;;;27.63;27.36;100665.44;5116718;28;20083;-48
2022/06/22 08:59:32;;;;;;;2.50;0.75;;;;;;;28.26;26.60;100656.50;5117078;28;20051;-50
2022/06/22 09:02:30;;;;;;;1.00;0.88;;;;;;;28.63;25.12;100660.16;5075840;28;20027;-51
2022/06/22 09:05:21;;;;;;;1.40;0.73;;;;;;;29.06;26.11;100653.38;5118953;28;20030;-50
2022/06/22 09:08:25;;;;;;;1.20;0.88;;;;;;;29.00;24.74;100660.97;5104057;28;20061;-50
2022/06/22 09:11:07;;;;;;;1.77;1.02;;;;;;;29.64;24.17;100648.88;5117131;28;20035;-49
2022/06/22 09:14:12;;;;;;;1.20;0.70;;;;;;;29.77;22.99;100661.00;5118317;28;20031;-52
2022/06/22 09:17:01;;;;;;;1.00;0.77;;;;;;;29.64;22.80;100648.88;5106623;28;20392;-50
2022/06/22 09:19:59;;;;;;;1.85;1.00;;;;;;;29.82;24.14;100647.03;5118246;28;20032;-51
2022/06/22 09:22:44;;;;;;;3.20;0.80;;;;;;;30.49;23.58;100654.25;5117945;28;20422;-49
2022/06/22 09:25:27;;;;;;;0.52;0.52;;;;;;;31.02;22.91;100658.72;5117051;28;20028;-49
2022/06/22 09:28:03;;;;;;;1.15;1.00;;;;;;;30.95;23.29;100658.41;5118625;28;20046;-49
2022/06/22 09:30:52;;;;;;;4.15;1.15;;;;;;;31.36;22.79;100659.00;5118965;28;20085;-50
2022/06/22 09:33:47;;;;;;;2.15;0.90;;;;;;;31.84;21.96;100658.72;5118799;28;20032;-48
2022/06/22 09:36:52;;;;;;;3.28;1.17;;;;;;;31.79;20.73;100644.19;5117639;28;20028;-48
2022/06/22 09:39:44;;;;;;;1.13;0.80;;;;;;;31.91;23.70;100657.38;5104990;28;20095;-51
2022/06/22 09:42:48;;;;;;;1.63;1.13;;;;;;;32.14;20.69;100663.53;5115913;28;20032;-46
2022/06/22 09:45:33;;;;;;;2.70;1.10;;;;;;;32.11;22.17;100658.63;5130636;27;20387;-47
2022/06/22 09:48:34;;;;;;;2.63;1.30;;;;;;;32.45;22.40;100662.34;5115809;28;20028;-49
2022/06/22 09:51:27;;;;;;;3.28;1.55;;;;;;;33.11;20.60;100670.88;5116596;28;20040;-48
2022/06/22 09:56:19;;;;;;;4.97;1.23;;;;;;;32.72;22.66;100658.25;5116009;28;20031;-53
2022/06/22 09:57:29;;;;;;;2.17;1.15;;;;;;;32.84;21.92;100661.13;5100999;28;20409;-48
2022/06/22 10:00:21;;;;;;;1.92;1.13;;;;;;;33.16;20.39;100658.75;5115367;28;20023;-50
2022/06/22 10:03:15;;;;;;;1.20;0.90;;;;;;;33.30;21.69;100662.03;5115586;28;20110;-52
2022/06/22 10:06:01;;;;;;;3.70;1.08;;;;;;;33.72;21.77;100638.81;5115848;28;20111;-49
2022/06/22 10:08:55;;;;;;;3.65;1.80;;;;;;;33.95;21.81;100644.75;5115292;28;20042;-50
2022/06/22 10:11:37;;;;;;;3.90;1.20;;;;;;;34.50;18.98;100650.88;5116680;27;20027;-53
2022/06/22 10:14:35;;;;;;;3.40;1.02;;;;;;;34.03;20.01;100637.44;5116509;28;20055;-51
2022/06/22 10:17:16;;;;;;;4.25;1.17;;;;;;;34.79;20.76;100649.78;5115816;28;20031;-51
2022/06/22 10:20:00;;;;;;;4.28;1.02;;;;;;;35.31;19.99;100641.66;5115165;28;20023;-50
2022/06/22 10:22:48;;;;;;;1.48;1.00;;;;;;;35.67;20.49;100640.63;5115745;28;20028;-51
2022/06/22 10:25:40;;;;;;;1.88;1.10;;;;;;;35.38;20.20;100651.03;5114832;28;20464;-48
2022/06/22 10:28:35;;;;;;;5.22;1.30;;;;;;;35.12;19.62;100645.13;5114713;28;20114;-47
2022/06/22 10:31:17;;;;;;;2.72;1.15;;;;;;;35.83;20.38;100647.06;5114806;28;20024;-51
2022/06/22 10:34:09;;;;;;;2.05;1.42;;;;;;;36.31;19.96;100635.84;5098917;28;20096;-48
2022/06/22 10:37:15;;;;;;;3.45;1.60;;;;;;;34.99;18.82;100641.56;5115767;28;20553;-50
2022/06/22 10:40:12;;;;;;;5.20;1.65;;;;;;;34.85;19.90;100642.78;5103249;28;20039;-50
2022/06/22 10:45:59;;;;;;;2.13;1.42;;;;;;;35.96;20.77;100638.56;5103956;28;20028;-50
2022/06/22 10:49:03;;;;;;;2.70;1.15;;;;;;;35.79;19.27;100625.75;5115492;28;20028;-51
2022/06/22 10:52:01;;;;;;;6.53;1.48;;;;;;;36.16;18.83;100628.25;5114665;28;20141;-50
2022/06/22 10:54:59;;;;;;;5.65;1.58;;;;;;;35.67;19.09;100619.06;5114706;28;20028;-49
2022/06/22 10:57:43;;;;;;;4.50;1.35;;;;;;;36.02;19.84;100617.56;5100019;28;20383;-50
2022/06/22 11:00:34;;;;;;;4.03;1.15;;;;;;;36.71;19.32;100633.91;5113720;28;20107;-49
2022/06/22 11:03:38;;;;;;;2.15;1.20;;;;;;;36.13;19.95;100626.19;5085525;28;20051;-49
2022/06/22 11:06:24;;;;;;;6.18;1.35;;;;;;;36.57;17.21;100624.00;5114423;28;20019;-46
2022/06/22 11:09:06;;;;;;;1.98;1.05;;;;;;;36.32;18.86;100631.03;5114750;28;20054;-48
2022/06/22 11:12:00;;;;;;;4.53;1.17;;;;;;;36.11;18.39;100620.97;5115283;28;20035;-50
2022/06/22 11:14:54;;;;;;;3.83;1.30;;;;;;;35.82;18.54;100622.25;5101186;28;20027;-49
2022/06/22 11:17:45;;;;;;;3.75;1.35;;;;;;;35.81;18.28;100623.41;5114980;28;20043;-50
2022/06/22 11:20:51;;;;;;;2.60;1.10;;;;;;;35.71;17.96;100629.56;5115369;28;20051;-48
2022/06/22 11:23:34;;;;;;;3.67;2.05;;;;;;;34.17;20.17;100628.75;5102914;28;20027;-51
2022/06/22 11:32:34;;;;;;;4.50;1.40;;;;;;;37.00;18.68;100604.50;5088830;28;20122;-48
2022/06/22 11:35:40;;;;;;;3.53;1.40;;;;;;;37.92;18.10;100610.13;5114382;28;20123;-47
2022/06/22 11:38:29;;;;;;;2.50;1.23;;;;;;;36.65;17.03;100615.75;5102115;28;20119;-47
2022/06/22 11:41:22;;;;;;;5.85;1.40;;;;;;;36.48;16.93;100608.59;5114670;28;20378;-47
2022/06/22 11:44:08;;;;;;;3.78;1.30;;;;;;;37.07;18.93;100617.81;5082236;28;20471;-49
2022/06/22 11:46:42;;;;;;;1.58;1.10;;;;;;;37.97;17.62;100587.38;5114403;28;20416;-49
2022/06/22 11:49:35;;;;;;;1.75;1.20;;;;;;;38.50;16.47;100603.38;5114358;28;20103;-49
2022/06/22 11:52:28;;;;;;;4.25;1.45;;;;;;;38.09;16.77;100591.97;5113700;28;20115;-47
2022/06/22 11:55:33;;;;;;;1.95;1.23;;;;;;;37.06;16.46;100605.81;5114420;28;20027;-52
2022/06/22 11:58:35;;;;;;;4.15;1.30;;;;;;;33.94;18.49;100604.13;5101599;28;20035;-50
2022/06/22 12:01:27;;;;;;;2.30;1.10;;;;;;;33.41;20.19;100584.44;5098792;28;20613;-47
2022/06/22 12:04:19;;;;;;;2.13;0.90;;;;;;;35.07;19.25;100587.56;5114222;28;20118;-48
2022/06/22 12:07:22;;;;;;;3.50;1.58;;;;;;;35.95;17.93;100587.44;5114217;28;20035;-49
2022/06/22 12:10:16;;;;;;;2.33;1.17;;;;;;;36.94;16.60;100589.16;5113204;28;20134;-49
2022/06/22 12:13:01;;;;;;;2.65;1.30;;;;;;;37.00;17.77;100576.50;5113310;28;20032;-48
2022/06/22 12:15:55;;;;;;;1.60;1.17;;;;;;;38.32;15.98;100574.28;5112725;28;20035;-47
2022/06/22 12:18:33;;;;;;;;;;;;;;;38.09;14.94;100574.34;5114021;28;20036;-47
2022/06/22 12:21:26;;;;;;;4.10;1.45;;;;;;;38.88;16.31;100572.56;5112701;28;19907;-48
2022/06/22 12:24:09;;;;;;;3.05;1.08;;;;;;;38.54;17.15;100578.13;5114267;28;20114;-52
2022/06/22 12:27:01;;;;;;;2.70;1.25;;;;;;;38.07;17.68;100568.28;5114088;28;20057;-50
2022/06/22 12:29:42;;;;;;;2.78;1.13;;;;;;;37.80;17.04;100561.88;5113106;28;20475;-51
2022/06/22 12:32:19;;;;;;;2.70;1.10;;;;;;;37.61;17.18;100557.94;5113697;28;20399;-48
2022/06/22 12:35:16;;;;;;;2.67;1.48;;;;;;;38.84;17.14;100560.44;5113884;28;20130;-49
2022/06/22 12:37:50;;;;;;;5.97;1.02;;;;;;;39.21;16.39;100543.63;5100025;28;20042;-50
2022/06/22 12:40:42;;;;;;;2.45;1.38;;;;;;;37.87;16.40;100545.97;5112467;28;20472;-52
2022/06/22 12:43:27;;;;;;;3.15;1.23;;;;;;;37.91;16.98;100554.41;5098650;28;20048;-51
2022/06/22 12:45:59;;;;;;;1.90;1.10;;;;;;;38.08;17.84;100548.31;5113593;28;20051;-48
2022/06/22 12:48:56;;;;;;;3.05;1.30;;;;;;;38.08;15.48;100544.66;5113936;28;20036;-50